sensor_id;sensor_type;location;lat;lon;timestamp;temperature;humidity
70830;SHT30;58451;51.550;7.208;2023-11-21T00:00:37;8.48;84.18
70830;SHT30;58451;51.550;7.208;2023-11-21T00:02:10;8.49;84.23
70830;SHT30;58451;51.550;7.208;2023-11-21T00:03:42;8.50;84.23
70830;SHT30;58451;51.550;7.208;2023-11-21T00:05:15;8.52;84.30
70830;SHT30;58451;51.550;7.208;2023-11-21T00:06:47;8.54;84.23
70830;SHT30;58451;51.550;7.208;2023-11-21T00:08:19;8.56;84.33
70830;SHT30;58451;51.550;7.208;2023-11-21T00:09:51;8.57;84.28
70830;SHT30;58451;51.550;7.208;2023-11-21T00:11:23;8.59;84.33
70830;SHT30;58451;51.550;7.208;2023-11-21T00:12:56;8.60;84.33
70830;SHT30;58451;51.550;7.208;2023-11-21T00:14:28;8.62;84.38
70830;SHT30;58451;51.550;7.208;2023-11-21T00:16:00;8.64;84.42
70830;SHT30;58451;51.550;7.208;2023-11-21T00:17:32;8.66;84.37
70830;SHT30;58451;51.550;7.208;2023-11-21T00:19:04;8.66;84.35
70830;SHT30;58451;51.550;7.208;2023-11-21T00:20:36;8.68;84.45
70830;SHT30;58451;51.550;7.208;2023-11-21T00:22:08;8.69;84.47
70830;SHT30;58451;51.550;7.208;2023-11-21T00:23:40;8.70;84.57
70830;SHT30;58451;51.550;7.208;2023-11-21T00:25:12;8.71;84.45
70830;SHT30;58451;51.550;7.208;2023-11-21T00:26:46;8.72;84.53
70830;SHT30;58451;51.550;7.208;2023-11-21T00:28:20;8.73;84.42
70830;SHT30;58451;51.550;7.208;2023-11-21T00:29:52;8.73;84.40
70830;SHT30;58451;51.550;7.208;2023-11-21T00:31:25;8.74;84.38
70830;SHT30;58451;51.550;7.208;2023-11-21T00:32:56;8.75;84.40
70830;SHT30;58451;51.550;7.208;2023-11-21T00:34:29;8.76;84.43
70830;SHT30;58451;51.550;7.208;2023-11-21T00:36:01;8.77;84.50
70830;SHT30;58451;51.550;7.208;2023-11-21T00:37:33;8.77;84.47
70830;SHT30;58451;51.550;7.208;2023-11-21T00:39:05;8.78;84.52
70830;SHT30;58451;51.550;7.208;2023-11-21T00:40:38;8.79;84.45
70830;SHT30;58451;51.550;7.208;2023-11-21T00:42:10;8.78;84.43
70830;SHT30;58451;51.550;7.208;2023-11-21T00:43:42;8.78;84.43
70830;SHT30;58451;51.550;7.208;2023-11-21T00:45:15;8.80;84.48
70830;SHT30;58451;51.550;7.208;2023-11-21T00:46:47;8.82;84.47
70830;SHT30;58451;51.550;7.208;2023-11-21T00:48:19;8.81;84.50
70830;SHT30;58451;51.550;7.208;2023-11-21T00:49:51;8.82;84.50
70830;SHT30;58451;51.550;7.208;2023-11-21T00:51:24;8.82;84.50
70830;SHT30;58451;51.550;7.208;2023-11-21T00:52:56;8.84;84.52
70830;SHT30;58451;51.550;7.208;2023-11-21T00:54:28;8.85;84.53
70830;SHT30;58451;51.550;7.208;2023-11-21T00:55:59;8.85;84.55
70830;SHT30;58451;51.550;7.208;2023-11-21T00:57:31;8.84;84.58
70830;SHT30;58451;51.550;7.208;2023-11-21T00:59:03;8.84;84.60
70830;SHT30;58451;51.550;7.208;2023-11-21T01:00:36;8.82;84.55
70830;SHT30;58451;51.550;7.208;2023-11-21T01:02:10;8.82;84.58
70830;SHT30;58451;51.550;7.208;2023-11-21T01:03:42;8.84;84.58
70830;SHT30;58451;51.550;7.208;2023-11-21T01:05:15;8.84;84.60
70830;SHT30;58451;51.550;7.208;2023-11-21T01:06:47;8.85;84.57
70830;SHT30;58451;51.550;7.208;2023-11-21T01:08:18;8.86;84.60
70830;SHT30;58451;51.550;7.208;2023-11-21T01:09:51;8.86;84.58
70830;SHT30;58451;51.550;7.208;2023-11-21T01:11:23;8.86;84.62
70830;SHT30;58451;51.550;7.208;2023-11-21T01:12:55;8.85;84.62
70830;SHT30;58451;51.550;7.208;2023-11-21T01:14:27;8.86;84.62
70830;SHT30;58451;51.550;7.208;2023-11-21T01:15:59;8.86;84.60
70830;SHT30;58451;51.550;7.208;2023-11-21T01:17:30;8.85;84.63
70830;SHT30;58451;51.550;7.208;2023-11-21T01:19:03;8.85;84.65
70830;SHT30;58451;51.550;7.208;2023-11-21T01:20:35;8.86;84.55
70830;SHT30;58451;51.550;7.208;2023-11-21T01:22:07;8.87;84.58
70830;SHT30;58451;51.550;7.208;2023-11-21T01:23:40;8.88;84.57
70830;SHT30;58451;51.550;7.208;2023-11-21T01:25:12;8.89;84.52
70830;SHT30;58451;51.550;7.208;2023-11-21T01:26:46;8.89;84.42
70830;SHT30;58451;51.550;7.208;2023-11-21T01:28:18;8.89;84.45
70830;SHT30;58451;51.550;7.208;2023-11-21T01:29:51;8.90;84.52
70830;SHT30;58451;51.550;7.208;2023-11-21T01:31:26;8.91;84.53
70830;SHT30;58451;51.550;7.208;2023-11-21T01:33:00;8.90;84.48
70830;SHT30;58451;51.550;7.208;2023-11-21T01:34:33;8.90;84.42
70830;SHT30;58451;51.550;7.208;2023-11-21T01:36:05;8.89;84.42
70830;SHT30;58451;51.550;7.208;2023-11-21T01:37:38;8.89;84.43
70830;SHT30;58451;51.550;7.208;2023-11-21T01:39:10;8.91;84.50
70830;SHT30;58451;51.550;7.208;2023-11-21T01:40:46;8.91;84.50
70830;SHT30;58451;51.550;7.208;2023-11-21T01:42:19;8.92;84.48
70830;SHT30;58451;51.550;7.208;2023-11-21T01:43:51;8.92;84.43
70830;SHT30;58451;51.550;7.208;2023-11-21T01:45:25;8.92;84.42
70830;SHT30;58451;51.550;7.208;2023-11-21T01:46:58;8.91;84.43
70830;SHT30;58451;51.550;7.208;2023-11-21T01:48:30;8.91;84.48
70830;SHT30;58451;51.550;7.208;2023-11-21T01:50:02;8.89;84.50
70830;SHT30;58451;51.550;7.208;2023-11-21T01:51:37;8.88;84.50
70830;SHT30;58451;51.550;7.208;2023-11-21T01:53:11;8.87;84.53
70830;SHT30;58451;51.550;7.208;2023-11-21T01:54:44;8.85;84.52
70830;SHT30;58451;51.550;7.208;2023-11-21T01:56:16;8.83;84.55
70830;SHT30;58451;51.550;7.208;2023-11-21T01:57:48;8.84;84.55
70830;SHT30;58451;51.550;7.208;2023-11-21T01:59:21;8.82;84.52
70830;SHT30;58451;51.550;7.208;2023-11-21T02:00:54;8.80;84.53
70830;SHT30;58451;51.550;7.208;2023-11-21T02:02:27;8.79;84.57
70830;SHT30;58451;51.550;7.208;2023-11-21T02:03:59;8.78;84.55
70830;SHT30;58451;51.550;7.208;2023-11-21T02:05:32;8.77;84.53
70830;SHT30;58451;51.550;7.208;2023-11-21T02:07:04;8.74;84.53
70830;SHT30;58451;51.550;7.208;2023-11-21T02:08:39;8.74;84.50
70830;SHT30;58451;51.550;7.208;2023-11-21T02:10:14;8.72;84.52
70830;SHT30;58451;51.550;7.208;2023-11-21T02:11:48;8.72;84.52
70830;SHT30;58451;51.550;7.208;2023-11-21T02:13:21;8.72;84.52
70830;SHT30;58451;51.550;7.208;2023-11-21T02:14:54;8.71;84.45
70830;SHT30;58451;51.550;7.208;2023-11-21T02:16:27;8.70;84.48
70830;SHT30;58451;51.550;7.208;2023-11-21T02:18:01;8.69;84.50
70830;SHT30;58451;51.550;7.208;2023-11-21T02:19:34;8.69;84.48
70830;SHT30;58451;51.550;7.208;2023-11-21T02:21:06;8.69;84.52
70830;SHT30;58451;51.550;7.208;2023-11-21T02:22:39;8.68;84.50
70830;SHT30;58451;51.550;7.208;2023-11-21T02:24:13;8.67;84.52
70830;SHT30;58451;51.550;7.208;2023-11-21T02:25:45;8.67;84.50
70830;SHT30;58451;51.550;7.208;2023-11-21T02:27:20;8.66;84.48
70830;SHT30;58451;51.550;7.208;2023-11-21T02:28:54;8.65;84.52
70830;SHT30;58451;51.550;7.208;2023-11-21T02:30:26;8.66;84.52
70830;SHT30;58451;51.550;7.208;2023-11-21T02:31:59;8.65;84.52
70830;SHT30;58451;51.550;7.208;2023-11-21T02:33:31;8.64;84.53
70830;SHT30;58451;51.550;7.208;2023-11-21T02:35:06;8.63;84.63
70830;SHT30;58451;51.550;7.208;2023-11-21T02:36:41;8.60;84.63
70830;SHT30;58451;51.550;7.208;2023-11-21T02:38:13;8.59;84.65
70830;SHT30;58451;51.550;7.208;2023-11-21T02:39:47;8.59;84.63
70830;SHT30;58451;51.550;7.208;2023-11-21T02:41:18;8.58;84.65
70830;SHT30;58451;51.550;7.208;2023-11-21T02:42:50;8.60;84.58
70830;SHT30;58451;51.550;7.208;2023-11-21T02:44:23;8.59;84.58
70830;SHT30;58451;51.550;7.208;2023-11-21T02:45:55;8.59;84.62
70830;SHT30;58451;51.550;7.208;2023-11-21T02:47:26;8.59;84.63
70830;SHT30;58451;51.550;7.208;2023-11-21T02:49:02;8.59;84.63
70830;SHT30;58451;51.550;7.208;2023-11-21T02:50:35;8.61;84.70
70830;SHT30;58451;51.550;7.208;2023-11-21T02:52:07;8.61;84.68
70830;SHT30;58451;51.550;7.208;2023-11-21T02:53:38;8.61;84.67
70830;SHT30;58451;51.550;7.208;2023-11-21T02:55:11;8.62;84.67
70830;SHT30;58451;51.550;7.208;2023-11-21T02:56:43;8.61;84.57
70830;SHT30;58451;51.550;7.208;2023-11-21T02:58:15;8.62;84.57
70830;SHT30;58451;51.550;7.208;2023-11-21T02:59:47;8.63;84.62
70830;SHT30;58451;51.550;7.208;2023-11-21T03:01:19;8.63;84.63
70830;SHT30;58451;51.550;7.208;2023-11-21T03:02:51;8.63;84.63
70830;SHT30;58451;51.550;7.208;2023-11-21T03:04:24;8.64;84.65
70830;SHT30;58451;51.550;7.208;2023-11-21T03:05:57;8.64;84.67
70830;SHT30;58451;51.550;7.208;2023-11-21T03:07:29;8.65;84.72
70830;SHT30;58451;51.550;7.208;2023-11-21T03:09:02;8.64;84.73
70830;SHT30;58451;51.550;7.208;2023-11-21T03:10:34;8.64;84.73
70830;SHT30;58451;51.550;7.208;2023-11-21T03:12:06;8.65;84.75
70830;SHT30;58451;51.550;7.208;2023-11-21T03:13:38;8.68;84.75
70830;SHT30;58451;51.550;7.208;2023-11-21T03:15:14;8.68;84.80
70830;SHT30;58451;51.550;7.208;2023-11-21T03:16:47;8.69;84.77
70830;SHT30;58451;51.550;7.208;2023-11-21T03:18:21;8.69;84.77
70830;SHT30;58451;51.550;7.208;2023-11-21T03:19:56;8.71;84.77
70830;SHT30;58451;51.550;7.208;2023-11-21T03:21:28;8.72;84.80
70830;SHT30;58451;51.550;7.208;2023-11-21T03:23:00;8.74;84.77
70830;SHT30;58451;51.550;7.208;2023-11-21T03:24:32;8.74;84.78
70830;SHT30;58451;51.550;7.208;2023-11-21T03:26:04;8.75;84.82
70830;SHT30;58451;51.550;7.208;2023-11-21T03:27:37;8.75;84.82
70830;SHT30;58451;51.550;7.208;2023-11-21T03:29:10;8.75;84.78
70830;SHT30;58451;51.550;7.208;2023-11-21T03:30:42;8.75;84.82
70830;SHT30;58451;51.550;7.208;2023-11-21T03:32:14;8.75;84.83
70830;SHT30;58451;51.550;7.208;2023-11-21T03:33:46;8.75;84.83
70830;SHT30;58451;51.550;7.208;2023-11-21T03:35:18;8.76;84.83
70830;SHT30;58451;51.550;7.208;2023-11-21T03:36:52;8.76;84.82
70830;SHT30;58451;51.550;7.208;2023-11-21T03:38:24;8.77;84.83
70830;SHT30;58451;51.550;7.208;2023-11-21T03:39:56;8.77;84.78
70830;SHT30;58451;51.550;7.208;2023-11-21T03:41:28;8.77;84.82
70830;SHT30;58451;51.550;7.208;2023-11-21T03:43:00;8.76;84.78
70830;SHT30;58451;51.550;7.208;2023-11-21T03:44:32;8.77;84.78
70830;SHT30;58451;51.550;7.208;2023-11-21T03:46:04;8.78;84.82
70830;SHT30;58451;51.550;7.208;2023-11-21T03:47:36;8.78;84.82
70830;SHT30;58451;51.550;7.208;2023-11-21T03:49:08;8.78;84.82
70830;SHT30;58451;51.550;7.208;2023-11-21T03:50:40;8.78;84.82
70830;SHT30;58451;51.550;7.208;2023-11-21T03:52:12;8.80;84.82
70830;SHT30;58451;51.550;7.208;2023-11-21T03:53:44;8.80;84.83
70830;SHT30;58451;51.550;7.208;2023-11-21T03:55:15;8.79;84.82
70830;SHT30;58451;51.550;7.208;2023-11-21T03:56:48;8.81;84.83
70830;SHT30;58451;51.550;7.208;2023-11-21T03:58:20;8.80;84.87
70830;SHT30;58451;51.550;7.208;2023-11-21T03:59:52;8.81;84.90
70830;SHT30;58451;51.550;7.208;2023-11-21T04:01:24;8.82;84.90
70830;SHT30;58451;51.550;7.208;2023-11-21T04:02:56;8.83;84.92
70830;SHT30;58451;51.550;7.208;2023-11-21T04:04:28;8.84;84.90
70830;SHT30;58451;51.550;7.208;2023-11-21T04:06:00;8.83;84.93
70830;SHT30;58451;51.550;7.208;2023-11-21T04:07:32;8.84;84.92
70830;SHT30;58451;51.550;7.208;2023-11-21T04:09:04;8.85;84.92
70830;SHT30;58451;51.550;7.208;2023-11-21T04:10:36;8.84;84.93
70830;SHT30;58451;51.550;7.208;2023-11-21T04:12:08;8.84;84.93
70830;SHT30;58451;51.550;7.208;2023-11-21T04:13:43;8.82;84.92
70830;SHT30;58451;51.550;7.208;2023-11-21T04:15:15;8.82;84.93
70830;SHT30;58451;51.550;7.208;2023-11-21T04:16:47;8.82;84.93
70830;SHT30;58451;51.550;7.208;2023-11-21T04:18:19;8.81;84.92
70830;SHT30;58451;51.550;7.208;2023-11-21T04:19:51;8.81;84.93
70830;SHT30;58451;51.550;7.208;2023-11-21T04:21:23;8.81;84.90
70830;SHT30;58451;51.550;7.208;2023-11-21T04:22:55;8.77;84.93
70830;SHT30;58451;51.550;7.208;2023-11-21T04:24:27;8.77;84.92
70830;SHT30;58451;51.550;7.208;2023-11-21T04:25:59;8.76;84.92
70830;SHT30;58451;51.550;7.208;2023-11-21T04:27:33;8.74;84.90
70830;SHT30;58451;51.550;7.208;2023-11-21T04:29:06;8.74;84.88
70830;SHT30;58451;51.550;7.208;2023-11-21T04:30:37;8.73;84.88
70830;SHT30;58451;51.550;7.208;2023-11-21T04:32:11;8.70;84.83
70830;SHT30;58451;51.550;7.208;2023-11-21T04:33:44;8.69;84.80
70830;SHT30;58451;51.550;7.208;2023-11-21T04:35:16;8.68;84.83
70830;SHT30;58451;51.550;7.208;2023-11-21T04:36:49;8.68;84.83
70830;SHT30;58451;51.550;7.208;2023-11-21T04:38:21;8.67;84.82
70830;SHT30;58451;51.550;7.208;2023-11-21T04:39:53;8.67;84.82
70830;SHT30;58451;51.550;7.208;2023-11-21T04:41:25;8.68;84.82
70830;SHT30;58451;51.550;7.208;2023-11-21T04:42:57;8.68;84.83
70830;SHT30;58451;51.550;7.208;2023-11-21T04:44:29;8.69;84.83
70830;SHT30;58451;51.550;7.208;2023-11-21T04:46:01;8.69;84.82
70830;SHT30;58451;51.550;7.208;2023-11-21T04:47:33;8.70;84.80
70830;SHT30;58451;51.550;7.208;2023-11-21T04:49:05;8.72;84.83
70830;SHT30;58451;51.550;7.208;2023-11-21T04:50:37;8.73;84.83
70830;SHT30;58451;51.550;7.208;2023-11-21T04:52:10;8.74;84.83
70830;SHT30;58451;51.550;7.208;2023-11-21T04:53:42;8.75;84.85
70830;SHT30;58451;51.550;7.208;2023-11-21T04:55:14;8.75;84.83
70830;SHT30;58451;51.550;7.208;2023-11-21T04:56:46;8.76;84.82
70830;SHT30;58451;51.550;7.208;2023-11-21T04:58:18;8.77;84.82
70830;SHT30;58451;51.550;7.208;2023-11-21T04:59:52;8.77;84.80
70830;SHT30;58451;51.550;7.208;2023-11-21T05:01:24;8.77;84.80
70830;SHT30;58451;51.550;7.208;2023-11-21T05:02:56;8.77;84.82
70830;SHT30;58451;51.550;7.208;2023-11-21T05:04:28;8.77;84.80
70830;SHT30;58451;51.550;7.208;2023-11-21T05:06:00;8.79;84.82
70830;SHT30;58451;51.550;7.208;2023-11-21T05:07:32;8.79;84.87
70830;SHT30;58451;51.550;7.208;2023-11-21T05:09:04;8.81;84.93
70830;SHT30;58451;51.550;7.208;2023-11-21T05:10:35;8.84;84.90
70830;SHT30;58451;51.550;7.208;2023-11-21T05:12:09;8.85;84.93
70830;SHT30;58451;51.550;7.208;2023-11-21T05:13:42;8.87;84.93
70830;SHT30;58451;51.550;7.208;2023-11-21T05:15:14;8.88;84.93
70830;SHT30;58451;51.550;7.208;2023-11-21T05:16:48;8.89;84.92
70830;SHT30;58451;51.550;7.208;2023-11-21T05:18:23;8.89;84.90
70830;SHT30;58451;51.550;7.208;2023-11-21T05:19:58;8.90;84.92
70830;SHT30;58451;51.550;7.208;2023-11-21T05:21:30;8.90;84.95
70830;SHT30;58451;51.550;7.208;2023-11-21T05:23:04;8.90;84.93
70830;SHT30;58451;51.550;7.208;2023-11-21T05:24:36;8.91;84.93
70830;SHT30;58451;51.550;7.208;2023-11-21T05:26:10;8.92;84.95
70830;SHT30;58451;51.550;7.208;2023-11-21T05:27:42;8.92;84.98
70830;SHT30;58451;51.550;7.208;2023-11-21T05:29:14;8.94;85.00
70830;SHT30;58451;51.550;7.208;2023-11-21T05:30:46;8.94;84.98
70830;SHT30;58451;51.550;7.208;2023-11-21T05:32:18;8.96;84.98
70830;SHT30;58451;51.550;7.208;2023-11-21T05:33:50;8.96;84.97
70830;SHT30;58451;51.550;7.208;2023-11-21T05:35:21;8.96;84.97
70830;SHT30;58451;51.550;7.208;2023-11-21T05:36:53;8.96;84.93
70830;SHT30;58451;51.550;7.208;2023-11-21T05:38:25;8.95;84.93
70830;SHT30;58451;51.550;7.208;2023-11-21T05:39:57;8.97;84.93
70830;SHT30;58451;51.550;7.208;2023-11-21T05:41:29;8.96;84.92
70830;SHT30;58451;51.550;7.208;2023-11-21T05:43:01;8.96;84.92
70830;SHT30;58451;51.550;7.208;2023-11-21T05:44:33;8.96;84.88
70830;SHT30;58451;51.550;7.208;2023-11-21T05:46:06;8.95;84.92
70830;SHT30;58451;51.550;7.208;2023-11-21T05:47:42;8.96;84.92
70830;SHT30;58451;51.550;7.208;2023-11-21T05:49:17;8.94;84.85
70830;SHT30;58451;51.550;7.208;2023-11-21T05:50:53;8.93;84.92
70830;SHT30;58451;51.550;7.208;2023-11-21T05:52:25;8.92;84.90
70830;SHT30;58451;51.550;7.208;2023-11-21T05:53:57;8.91;84.88
70830;SHT30;58451;51.550;7.208;2023-11-21T05:55:28;8.91;84.90
70830;SHT30;58451;51.550;7.208;2023-11-21T05:57:00;8.90;84.88
70830;SHT30;58451;51.550;7.208;2023-11-21T05:58:32;8.90;84.92
70830;SHT30;58451;51.550;7.208;2023-11-21T06:00:08;8.88;84.90
70830;SHT30;58451;51.550;7.208;2023-11-21T06:01:52;8.88;84.87
70830;SHT30;58451;51.550;7.208;2023-11-21T06:03:25;8.87;84.87
70830;SHT30;58451;51.550;7.208;2023-11-21T06:04:57;8.87;84.85
70830;SHT30;58451;51.550;7.208;2023-11-21T06:06:29;8.86;84.87
70830;SHT30;58451;51.550;7.208;2023-11-21T06:08:01;8.86;84.92
70830;SHT30;58451;51.550;7.208;2023-11-21T06:09:33;8.85;84.92
70830;SHT30;58451;51.550;7.208;2023-11-21T06:11:06;8.83;84.93
70830;SHT30;58451;51.550;7.208;2023-11-21T06:12:38;8.82;84.85
70830;SHT30;58451;51.550;7.208;2023-11-21T06:14:11;8.83;84.87
70830;SHT30;58451;51.550;7.208;2023-11-21T06:15:43;8.81;84.83
70830;SHT30;58451;51.550;7.208;2023-11-21T06:17:15;8.80;84.83
70830;SHT30;58451;51.550;7.208;2023-11-21T06:18:47;8.81;84.87
70830;SHT30;58451;51.550;7.208;2023-11-21T06:20:19;8.77;84.90
70830;SHT30;58451;51.550;7.208;2023-11-21T06:21:52;8.77;84.82
70830;SHT30;58451;51.550;7.208;2023-11-21T06:23:25;8.75;84.90
70830;SHT30;58451;51.550;7.208;2023-11-21T06:24:56;8.75;84.90
70830;SHT30;58451;51.550;7.208;2023-11-21T06:26:28;8.75;84.92
70830;SHT30;58451;51.550;7.208;2023-11-21T06:28:00;8.75;84.93
70830;SHT30;58451;51.550;7.208;2023-11-21T06:29:32;8.74;84.90
70830;SHT30;58451;51.550;7.208;2023-11-21T06:31:04;8.74;84.87
70830;SHT30;58451;51.550;7.208;2023-11-21T06:32:37;8.75;84.85
70830;SHT30;58451;51.550;7.208;2023-11-21T06:34:11;8.75;84.85
70830;SHT30;58451;51.550;7.208;2023-11-21T06:35:43;8.77;84.87
70830;SHT30;58451;51.550;7.208;2023-11-21T06:37:16;8.78;84.85
70830;SHT30;58451;51.550;7.208;2023-11-21T06:38:48;8.78;84.90
70830;SHT30;58451;51.550;7.208;2023-11-21T06:40:20;8.78;84.90
70830;SHT30;58451;51.550;7.208;2023-11-21T06:41:53;8.78;84.93
70830;SHT30;58451;51.550;7.208;2023-11-21T06:43:25;8.79;84.92
70830;SHT30;58451;51.550;7.208;2023-11-21T06:44:59;8.81;84.90
70830;SHT30;58451;51.550;7.208;2023-11-21T06:46:38;8.82;84.95
70830;SHT30;58451;51.550;7.208;2023-11-21T06:48:13;8.82;84.97
70830;SHT30;58451;51.550;7.208;2023-11-21T06:49:46;8.83;84.97
70830;SHT30;58451;51.550;7.208;2023-11-21T06:51:21;8.84;84.93
70830;SHT30;58451;51.550;7.208;2023-11-21T06:52:52;8.85;84.88
70830;SHT30;58451;51.550;7.208;2023-11-21T06:54:26;8.85;84.87
70830;SHT30;58451;51.550;7.208;2023-11-21T06:55:58;8.86;84.92
70830;SHT30;58451;51.550;7.208;2023-11-21T06:57:31;8.87;84.88
70830;SHT30;58451;51.550;7.208;2023-11-21T06:59:03;8.88;84.92
70830;SHT30;58451;51.550;7.208;2023-11-21T07:00:38;8.89;84.92
70830;SHT30;58451;51.550;7.208;2023-11-21T07:02:09;8.91;84.90
70830;SHT30;58451;51.550;7.208;2023-11-21T07:03:42;8.93;84.88
70830;SHT30;58451;51.550;7.208;2023-11-21T07:05:14;8.94;84.88
70830;SHT30;58451;51.550;7.208;2023-11-21T07:06:46;8.95;84.88
70830;SHT30;58451;51.550;7.208;2023-11-21T07:08:18;8.96;84.85
70830;SHT30;58451;51.550;7.208;2023-11-21T07:09:50;8.98;84.88
70830;SHT30;58451;51.550;7.208;2023-11-21T07:11:23;8.99;84.88
70830;SHT30;58451;51.550;7.208;2023-11-21T07:12:55;9.01;84.85
70830;SHT30;58451;51.550;7.208;2023-11-21T07:14:28;9.02;84.83
70830;SHT30;58451;51.550;7.208;2023-11-21T07:16:00;9.04;84.85
70830;SHT30;58451;51.550;7.208;2023-11-21T07:17:33;9.05;84.85
70830;SHT30;58451;51.550;7.208;2023-11-21T07:19:09;9.05;84.82
70830;SHT30;58451;51.550;7.208;2023-11-21T07:20:41;9.06;84.80
70830;SHT30;58451;51.550;7.208;2023-11-21T07:22:13;9.06;84.80
70830;SHT30;58451;51.550;7.208;2023-11-21T07:23:45;9.07;84.80
70830;SHT30;58451;51.550;7.208;2023-11-21T07:25:17;9.09;84.75
70830;SHT30;58451;51.550;7.208;2023-11-21T07:26:49;9.09;84.73
70830;SHT30;58451;51.550;7.208;2023-11-21T07:28:21;9.11;84.72
70830;SHT30;58451;51.550;7.208;2023-11-21T07:29:52;9.12;84.75
70830;SHT30;58451;51.550;7.208;2023-11-21T07:31:24;9.12;84.67
70830;SHT30;58451;51.550;7.208;2023-11-21T07:32:57;9.13;84.63
70830;SHT30;58451;51.550;7.208;2023-11-21T07:34:28;9.14;84.68
70830;SHT30;58451;51.550;7.208;2023-11-21T07:36:00;9.16;84.60
70830;SHT30;58451;51.550;7.208;2023-11-21T07:37:32;9.18;84.63
70830;SHT30;58451;51.550;7.208;2023-11-21T07:39:04;9.20;84.70
70830;SHT30;58451;51.550;7.208;2023-11-21T07:40:37;9.22;84.72
70830;SHT30;58451;51.550;7.208;2023-11-21T07:42:09;9.23;84.60
70830;SHT30;58451;51.550;7.208;2023-11-21T07:43:42;9.26;84.57
70830;SHT30;58451;51.550;7.208;2023-11-21T07:45:16;9.28;84.57
70830;SHT30;58451;51.550;7.208;2023-11-21T07:46:48;9.32;84.63
70830;SHT30;58451;51.550;7.208;2023-11-21T07:48:23;9.34;84.65
70830;SHT30;58451;51.550;7.208;2023-11-21T07:49:55;9.36;84.63
70830;SHT30;58451;51.550;7.208;2023-11-21T07:51:29;9.40;84.63
70830;SHT30;58451;51.550;7.208;2023-11-21T07:53:01;9.43;84.65
70830;SHT30;58451;51.550;7.208;2023-11-21T07:54:37;9.47;84.58
70830;SHT30;58451;51.550;7.208;2023-11-21T07:56:09;9.51;84.60
70830;SHT30;58451;51.550;7.208;2023-11-21T07:57:41;9.54;84.58
70830;SHT30;58451;51.550;7.208;2023-11-21T07:59:13;9.58;84.57
70830;SHT30;58451;51.550;7.208;2023-11-21T08:00:45;9.59;84.55
70830;SHT30;58451;51.550;7.208;2023-11-21T08:02:17;9.62;84.55
70830;SHT30;58451;51.550;7.208;2023-11-21T08:03:52;9.62;84.38
70830;SHT30;58451;51.550;7.208;2023-11-21T08:05:25;9.61;84.12
70830;SHT30;58451;51.550;7.208;2023-11-21T08:07:07;9.62;84.22
70830;SHT30;58451;51.550;7.208;2023-11-21T08:08:39;9.64;84.25
70830;SHT30;58451;51.550;7.208;2023-11-21T08:10:11;9.66;84.25
70830;SHT30;58451;51.550;7.208;2023-11-21T08:11:43;9.68;84.27
70830;SHT30;58451;51.550;7.208;2023-11-21T08:13:14;9.71;84.22
70830;SHT30;58451;51.550;7.208;2023-11-21T08:14:48;9.72;84.12
70830;SHT30;58451;51.550;7.208;2023-11-21T08:16:20;9.77;84.20
70830;SHT30;58451;51.550;7.208;2023-11-21T08:17:52;9.79;84.13
70830;SHT30;58451;51.550;7.208;2023-11-21T08:19:24;9.82;84.07
70830;SHT30;58451;51.550;7.208;2023-11-21T08:20:56;9.87;84.03
70830;SHT30;58451;51.550;7.208;2023-11-21T08:22:29;9.89;83.80
70830;SHT30;58451;51.550;7.208;2023-11-21T08:26:16;9.94;83.78
70830;SHT30;58451;51.550;7.208;2023-11-21T08:27:53;9.96;83.80
70830;SHT30;58451;51.550;7.208;2023-11-21T08:29:25;9.98;83.70
70830;SHT30;58451;51.550;7.208;2023-11-21T08:30:58;9.97;83.67
70830;SHT30;58451;51.550;7.208;2023-11-21T08:32:32;9.98;83.75
70830;SHT30;58451;51.550;7.208;2023-11-21T08:34:04;10.01;83.68
70830;SHT30;58451;51.550;7.208;2023-11-21T08:35:37;10.03;83.80
70830;SHT30;58451;51.550;7.208;2023-11-21T08:37:09;10.04;83.87
70830;SHT30;58451;51.550;7.208;2023-11-21T08:38:42;10.03;83.93
70830;SHT30;58451;51.550;7.208;2023-11-21T08:40:14;10.03;83.87
70830;SHT30;58451;51.550;7.208;2023-11-21T08:41:49;10.03;83.85
70830;SHT30;58451;51.550;7.208;2023-11-21T08:43:22;10.04;83.85
70830;SHT30;58451;51.550;7.208;2023-11-21T08:44:54;10.02;83.70
70830;SHT30;58451;51.550;7.208;2023-11-21T08:46:26;10.01;83.50
70830;SHT30;58451;51.550;7.208;2023-11-21T08:47:58;10.01;83.25
70830;SHT30;58451;51.550;7.208;2023-11-21T08:49:30;10.03;83.27
70830;SHT30;58451;51.550;7.208;2023-11-21T08:51:02;10.04;83.30
70830;SHT30;58451;51.550;7.208;2023-11-21T08:52:36;10.06;83.43
70830;SHT30;58451;51.550;7.208;2023-11-21T08:54:08;10.11;83.43
70830;SHT30;58451;51.550;7.208;2023-11-21T08:55:40;10.15;83.32
70830;SHT30;58451;51.550;7.208;2023-11-21T08:57:12;10.19;83.40
70830;SHT30;58451;51.550;7.208;2023-11-21T08:58:44;10.23;83.50
70830;SHT30;58451;51.550;7.208;2023-11-21T09:00:16;10.25;83.52
70830;SHT30;58451;51.550;7.208;2023-11-21T09:01:49;10.32;83.57
70830;SHT30;58451;51.550;7.208;2023-11-21T09:03:21;10.35;83.48
70830;SHT30;58451;51.550;7.208;2023-11-21T09:04:53;10.40;83.47
70830;SHT30;58451;51.550;7.208;2023-11-21T09:06:25;10.44;83.40
70830;SHT30;58451;51.550;7.208;2023-11-21T09:07:57;10.45;83.32
70830;SHT30;58451;51.550;7.208;2023-11-21T09:09:29;10.47;83.15
70830;SHT30;58451;51.550;7.208;2023-11-21T09:11:01;10.49;83.13
70830;SHT30;58451;51.550;7.208;2023-11-21T09:12:35;10.53;83.30
70830;SHT30;58451;51.550;7.208;2023-11-21T09:14:09;10.55;83.23
70830;SHT30;58451;51.550;7.208;2023-11-21T09:15:44;10.55;83.02
70830;SHT30;58451;51.550;7.208;2023-11-21T09:17:18;10.57;82.82
70830;SHT30;58451;51.550;7.208;2023-11-21T09:18:50;10.61;83.13
70830;SHT30;58451;51.550;7.208;2023-11-21T09:20:22;10.63;83.08
70830;SHT30;58451;51.550;7.208;2023-11-21T09:21:54;10.63;83.02
70830;SHT30;58451;51.550;7.208;2023-11-21T09:23:28;10.63;83.12
70830;SHT30;58451;51.550;7.208;2023-11-21T09:25:00;10.63;83.15
70830;SHT30;58451;51.550;7.208;2023-11-21T09:26:32;10.63;83.15
70830;SHT30;58451;51.550;7.208;2023-11-21T09:28:05;10.62;83.17
70830;SHT30;58451;51.550;7.208;2023-11-21T09:29:40;10.63;83.13
70830;SHT30;58451;51.550;7.208;2023-11-21T09:31:13;10.62;83.05
70830;SHT30;58451;51.550;7.208;2023-11-21T09:32:47;10.61;82.85
70830;SHT30;58451;51.550;7.208;2023-11-21T09:34:19;10.60;82.62
70830;SHT30;58451;51.550;7.208;2023-11-21T09:35:52;10.59;82.60
70830;SHT30;58451;51.550;7.208;2023-11-21T09:37:24;10.60;82.73
70830;SHT30;58451;51.550;7.208;2023-11-21T09:38:58;10.57;82.85
70830;SHT30;58451;51.550;7.208;2023-11-21T09:40:34;10.53;82.83
70830;SHT30;58451;51.550;7.208;2023-11-21T09:42:25;10.50;82.98
70830;SHT30;58451;51.550;7.208;2023-11-21T09:44:10;10.52;83.03
70830;SHT30;58451;51.550;7.208;2023-11-21T09:45:56;10.52;83.02
70830;SHT30;58451;51.550;7.208;2023-11-21T09:47:35;10.53;82.98
70830;SHT30;58451;51.550;7.208;2023-11-21T09:49:10;10.55;83.02
70830;SHT30;58451;51.550;7.208;2023-11-21T09:50:47;10.55;82.95
70830;SHT30;58451;51.550;7.208;2023-11-21T09:52:26;10.54;82.90
70830;SHT30;58451;51.550;7.208;2023-11-21T09:53:59;10.55;82.90
70830;SHT30;58451;51.550;7.208;2023-11-21T09:55:37;10.54;82.93
70830;SHT30;58451;51.550;7.208;2023-11-21T09:57:15;10.53;82.92